sensor_id;sensor_type;location;lat;lon;timestamp;temperature;humidity
431;DHT22;202;48.764;9.172;2023-03-01T00:01:46;3.50;38.80
431;DHT22;202;48.764;9.172;2023-03-01T00:04:14;3.50;39.10
431;DHT22;202;48.764;9.172;2023-03-01T00:06:42;3.60;39.00
431;DHT22;202;48.764;9.172;2023-03-01T00:09:11;3.50;38.30
431;DHT22;202;48.764;9.172;2023-03-01T00:11:38;3.60;38.30
431;DHT22;202;48.764;9.172;2023-03-01T00:14:05;3.50;38.60
431;DHT22;202;48.764;9.172;2023-03-01T00:16:34;3.60;38.70
431;DHT22;202;48.764;9.172;2023-03-01T00:19:06;3.60;38.50
431;DHT22;202;48.764;9.172;2023-03-01T00:21:34;3.60;38.30
431;DHT22;202;48.764;9.172;2023-03-01T00:24:02;3.50;38.40
431;DHT22;202;48.764;9.172;2023-03-01T00:26:46;3.50;38.90
431;DHT22;202;48.764;9.172;2023-03-01T00:29:28;3.40;38.90
431;DHT22;202;48.764;9.172;2023-03-01T00:32:13;3.30;38.90
431;DHT22;202;48.764;9.172;2023-03-01T00:38:28;3.00;39.60
431;DHT22;202;48.764;9.172;2023-03-01T00:40:55;2.70;40.80
431;DHT22;202;48.764;9.172;2023-03-01T00:43:45;2.70;41.00
431;DHT22;202;48.764;9.172;2023-03-01T00:59:52;2.90;40.70
431;DHT22;202;48.764;9.172;2023-03-01T01:03:11;2.90;40.90
431;DHT22;202;48.764;9.172;2023-03-01T01:06:11;2.70;40.80
431;DHT22;202;48.764;9.172;2023-03-01T01:09:03;2.70;40.90
431;DHT22;202;48.764;9.172;2023-03-01T01:14:18;2.70;41.20
431;DHT22;202;48.764;9.172;2023-03-01T01:16:47;2.90;41.30
431;DHT22;202;48.764;9.172;2023-03-01T01:19:16;3.00;41.20
431;DHT22;202;48.764;9.172;2023-03-01T01:21:49;3.00;40.70
431;DHT22;202;48.764;9.172;2023-03-01T01:24:17;2.90;40.60
431;DHT22;202;48.764;9.172;2023-03-01T01:26:45;3.00;40.40
431;DHT22;202;48.764;9.172;2023-03-01T01:29:14;3.00;40.30
431;DHT22;202;48.764;9.172;2023-03-01T01:31:43;3.00;40.40
431;DHT22;202;48.764;9.172;2023-03-01T01:34:16;2.90;40.10
431;DHT22;202;48.764;9.172;2023-03-01T01:36:48;2.80;40.10
431;DHT22;202;48.764;9.172;2023-03-01T01:39:16;2.80;40.60
431;DHT22;202;48.764;9.172;2023-03-01T01:41:44;2.80;40.70
431;DHT22;202;48.764;9.172;2023-03-01T01:44:18;2.80;40.80
431;DHT22;202;48.764;9.172;2023-03-01T01:46:49;2.80;40.60
431;DHT22;202;48.764;9.172;2023-03-01T01:49:25;2.90;40.40
431;DHT22;202;48.764;9.172;2023-03-01T01:52:01;2.80;40.50
431;DHT22;202;48.764;9.172;2023-03-01T01:54:39;2.80;40.40
431;DHT22;202;48.764;9.172;2023-03-01T01:57:14;2.80;40.70
431;DHT22;202;48.764;9.172;2023-03-01T01:59:46;2.80;40.80
431;DHT22;202;48.764;9.172;2023-03-01T03:33:21;2.80;40.90
431;DHT22;202;48.764;9.172;2023-03-01T03:36:41;2.80;41.30
431;DHT22;202;48.764;9.172;2023-03-01T03:39:21;2.80;41.60
431;DHT22;202;48.764;9.172;2023-03-01T03:42:17;2.80;41.50
431;DHT22;202;48.764;9.172;2023-03-01T03:48:17;2.90;41.10
431;DHT22;202;48.764;9.172;2023-03-01T03:51:20;3.00;41.30
431;DHT22;202;48.764;9.172;2023-03-01T03:53:54;3.00;41.20
431;DHT22;202;48.764;9.172;2023-03-01T03:57:24;2.90;41.10
431;DHT22;202;48.764;9.172;2023-03-01T04:02:54;3.00;41.10
431;DHT22;202;48.764;9.172;2023-03-01T04:03:50;3.00;41.30
431;DHT22;202;48.764;9.172;2023-03-01T04:46:06;3.00;41.50
431;DHT22;202;48.764;9.172;2023-03-01T04:49:31;3.00;41.80
431;DHT22;202;48.764;9.172;2023-03-01T04:52:13;3.10;41.50
431;DHT22;202;48.764;9.172;2023-03-01T04:55:05;3.10;41.60
431;DHT22;202;48.764;9.172;2023-03-01T04:57:51;3.10;41.70
431;DHT22;202;48.764;9.172;2023-03-01T05:00:33;3.20;41.40
431;DHT22;202;48.764;9.172;2023-03-01T05:03:52;3.20;41.00
431;DHT22;202;48.764;9.172;2023-03-01T05:06:50;3.20;41.30
431;DHT22;202;48.764;9.172;2023-03-01T05:09:42;3.20;41.30
431;DHT22;202;48.764;9.172;2023-03-01T05:15:56;3.30;41.40
431;DHT22;202;48.764;9.172;2023-03-01T05:22:56;3.30;41.30
431;DHT22;202;48.764;9.172;2023-03-01T05:29:13;3.20;41.40
431;DHT22;202;48.764;9.172;2023-03-01T05:32:14;3.20;41.60
431;DHT22;202;48.764;9.172;2023-03-01T05:34:58;3.20;41.60
431;DHT22;202;48.764;9.172;2023-03-01T05:37:43;3.20;42.00
431;DHT22;202;48.764;9.172;2023-03-01T05:56:40;3.40;41.20
431;DHT22;202;48.764;9.172;2023-03-01T06:03:41;3.50;41.20
431;DHT22;202;48.764;9.172;2023-03-01T06:10:07;3.50;41.20
431;DHT22;202;48.764;9.172;2023-03-01T06:16:43;3.50;41.80
431;DHT22;202;48.764;9.172;2023-03-01T06:19:46;3.40;41.40
431;DHT22;202;48.764;9.172;2023-03-01T06:22:56;3.50;41.30
431;DHT22;202;48.764;9.172;2023-03-01T06:31:57;3.60;41.30
431;DHT22;202;48.764;9.172;2023-03-01T06:35:41;3.50;41.50
431;DHT22;202;48.764;9.172;2023-03-01T06:38:14;3.50;41.40
431;DHT22;202;48.764;9.172;2023-03-01T07:02:05;2.60;43.30
431;DHT22;202;48.764;9.172;2023-03-01T07:05:02;2.70;43.40
431;DHT22;202;48.764;9.172;2023-03-01T07:08:55;2.40;43.50
431;DHT22;202;48.764;9.172;2023-03-01T07:11:20;2.50;44.40
431;DHT22;202;48.764;9.172;2023-03-01T07:13:53;2.70;43.40
431;DHT22;202;48.764;9.172;2023-03-01T07:16:20;2.80;43.20
431;DHT22;202;48.764;9.172;2023-03-01T07:18:47;2.70;43.10
431;DHT22;202;48.764;9.172;2023-03-01T07:21:15;2.80;43.40
431;DHT22;202;48.764;9.172;2023-03-01T07:23:43;2.90;42.50
431;DHT22;202;48.764;9.172;2023-03-01T07:26:16;2.90;42.30
431;DHT22;202;48.764;9.172;2023-03-01T09:57:53;7.90;29.80
431;DHT22;202;48.764;9.172;2023-03-01T10:00:41;8.20;29.00
431;DHT22;202;48.764;9.172;2023-03-01T10:03:43;8.20;28.60
431;DHT22;202;48.764;9.172;2023-03-01T10:09:21;8.10;28.00
431;DHT22;202;48.764;9.172;2023-03-01T10:12:30;8.20;28.80
431;DHT22;202;48.764;9.172;2023-03-01T10:15:47;8.10;28.50
431;DHT22;202;48.764;9.172;2023-03-01T10:18:41;8.00;28.50
431;DHT22;202;48.764;9.172;2023-03-01T13:00:00;9.00;27.60
431;DHT22;202;48.764;9.172;2023-03-01T13:08:52;9.00;27.60
431;DHT22;202;48.764;9.172;2023-03-01T13:19:21;8.80;29.00
431;DHT22;202;48.764;9.172;2023-03-01T13:22:28;8.80;27.80
431;DHT22;202;48.764;9.172;2023-03-01T13:25:22;8.70;27.80
431;DHT22;202;48.764;9.172;2023-03-01T14:03:40;9.00;28.20
431;DHT22;202;48.764;9.172;2023-03-01T16:11:51;8.40;29.30
431;DHT22;202;48.764;9.172;2023-03-01T16:14:19;8.20;29.10
431;DHT22;202;48.764;9.172;2023-03-01T16:16:57;8.10;29.70
431;DHT22;202;48.764;9.172;2023-03-01T16:19:24;8.10;29.80
431;DHT22;202;48.764;9.172;2023-03-01T16:21:51;8.20;29.40
431;DHT22;202;48.764;9.172;2023-03-01T16:24:20;8.20;29.40
431;DHT22;202;48.764;9.172;2023-03-01T16:26:47;8.20;29.30
431;DHT22;202;48.764;9.172;2023-03-01T16:29:14;8.10;29.40
431;DHT22;202;48.764;9.172;2023-03-01T16:31:43;8.20;29.40
431;DHT22;202;48.764;9.172;2023-03-01T16:34:12;8.20;29.40
431;DHT22;202;48.764;9.172;2023-03-01T16:36:38;8.20;29.70
431;DHT22;202;48.764;9.172;2023-03-01T16:39:06;8.20;29.70
431;DHT22;202;48.764;9.172;2023-03-01T16:41:35;8.20;29.60
431;DHT22;202;48.764;9.172;2023-03-01T16:44:01;8.20;29.70
431;DHT22;202;48.764;9.172;2023-03-01T16:46:29;8.30;29.80
431;DHT22;202;48.764;9.172;2023-03-01T16:48:57;8.30;29.70
431;DHT22;202;48.764;9.172;2023-03-01T16:51:24;8.30;29.30
431;DHT22;202;48.764;9.172;2023-03-01T16:53:52;8.40;29.40
431;DHT22;202;48.764;9.172;2023-03-01T16:56:19;8.40;29.50
431;DHT22;202;48.764;9.172;2023-03-01T16:58:48;8.40;29.20
431;DHT22;202;48.764;9.172;2023-03-01T17:01:17;8.40;29.50
431;DHT22;202;48.764;9.172;2023-03-01T17:03:45;8.40;29.70
431;DHT22;202;48.764;9.172;2023-03-01T17:06:16;8.30;29.60
431;DHT22;202;48.764;9.172;2023-03-01T17:08:43;8.30;29.60
431;DHT22;202;48.764;9.172;2023-03-01T17:11:13;8.20;29.90
431;DHT22;202;48.764;9.172;2023-03-01T17:13:40;8.30;30.00
431;DHT22;202;48.764;9.172;2023-03-01T17:16:11;8.40;29.90
431;DHT22;202;48.764;9.172;2023-03-01T17:18:38;8.40;29.80
431;DHT22;202;48.764;9.172;2023-03-01T17:21:07;8.40;29.90
431;DHT22;202;48.764;9.172;2023-03-01T17:23:35;8.20;29.60
431;DHT22;202;48.764;9.172;2023-03-01T17:26:03;8.20;29.80
431;DHT22;202;48.764;9.172;2023-03-01T17:28:32;8.30;29.90
431;DHT22;202;48.764;9.172;2023-03-01T17:30:59;8.30;29.80
431;DHT22;202;48.764;9.172;2023-03-01T17:33:28;8.40;29.70
431;DHT22;202;48.764;9.172;2023-03-01T17:35:57;8.30;29.40
431;DHT22;202;48.764;9.172;2023-03-01T17:38:24;8.20;29.70
431;DHT22;202;48.764;9.172;2023-03-01T17:40:51;8.40;29.90
431;DHT22;202;48.764;9.172;2023-03-01T17:43:20;8.40;29.80
431;DHT22;202;48.764;9.172;2023-03-01T17:45:47;8.40;29.70
431;DHT22;202;48.764;9.172;2023-03-01T17:48:17;8.50;29.50
431;DHT22;202;48.764;9.172;2023-03-01T17:50:47;8.50;29.60
431;DHT22;202;48.764;9.172;2023-03-01T17:53:47;8.40;29.70
431;DHT22;202;48.764;9.172;2023-03-01T17:56:14;8.40;29.40
431;DHT22;202;48.764;9.172;2023-03-01T17:58:49;8.40;29.70
431;DHT22;202;48.764;9.172;2023-03-01T18:01:20;8.40;29.60
431;DHT22;202;48.764;9.172;2023-03-01T18:03:53;8.40;29.70
431;DHT22;202;48.764;9.172;2023-03-01T18:06:29;8.30;29.80
431;DHT22;202;48.764;9.172;2023-03-01T18:08:56;8.20;29.80
431;DHT22;202;48.764;9.172;2023-03-01T18:11:24;8.20;30.00
431;DHT22;202;48.764;9.172;2023-03-01T18:13:52;8.10;30.00
431;DHT22;202;48.764;9.172;2023-03-01T18:16:21;8.00;30.10
431;DHT22;202;48.764;9.172;2023-03-01T18:19:11;8.10;30.60
431;DHT22;202;48.764;9.172;2023-03-01T18:21:39;8.00;30.70
431;DHT22;202;48.764;9.172;2023-03-01T18:24:31;8.00;30.60
431;DHT22;202;48.764;9.172;2023-03-01T18:28:06;8.00;30.60
431;DHT22;202;48.764;9.172;2023-03-01T18:30:38;8.00;30.50
431;DHT22;202;48.764;9.172;2023-03-01T18:33:19;8.00;30.80
431;DHT22;202;48.764;9.172;2023-03-01T18:36:22;8.00;30.50
431;DHT22;202;48.764;9.172;2023-03-01T18:39:19;7.90;30.80
431;DHT22;202;48.764;9.172;2023-03-01T18:42:41;7.80;30.80
431;DHT22;202;48.764;9.172;2023-03-01T18:45:15;7.90;30.90
431;DHT22;202;48.764;9.172;2023-03-01T18:48:12;7.80;31.00
431;DHT22;202;48.764;9.172;2023-03-01T18:50:56;7.80;31.50
431;DHT22;202;48.764;9.172;2023-03-01T18:53:49;7.70;31.00
431;DHT22;202;48.764;9.172;2023-03-01T18:56:48;7.70;31.30
431;DHT22;202;48.764;9.172;2023-03-01T18:59:15;7.70;31.30
431;DHT22;202;48.764;9.172;2023-03-01T19:01:50;7.60;31.40
431;DHT22;202;48.764;9.172;2023-03-01T19:04:16;7.60;31.70
431;DHT22;202;48.764;9.172;2023-03-01T19:06:43;7.60;31.60
431;DHT22;202;48.764;9.172;2023-03-01T19:09:14;7.60;31.70
431;DHT22;202;48.764;9.172;2023-03-01T19:25:38;7.50;32.60
431;DHT22;202;48.764;9.172;2023-03-01T19:28:29;7.40;32.50
431;DHT22;202;48.764;9.172;2023-03-01T19:31:43;7.40;32.50
431;DHT22;202;48.764;9.172;2023-03-01T19:34:20;7.40;32.50
431;DHT22;202;48.764;9.172;2023-03-01T19:37:21;7.40;32.80
431;DHT22;202;48.764;9.172;2023-03-01T19:39:57;7.30;32.40
431;DHT22;202;48.764;9.172;2023-03-01T19:42:52;7.20;33.10
431;DHT22;202;48.764;9.172;2023-03-01T19:45:53;7.20;33.20
431;DHT22;202;48.764;9.172;2023-03-01T19:48:50;7.10;33.50
431;DHT22;202;48.764;9.172;2023-03-01T19:51:41;7.10;33.80
431;DHT22;202;48.764;9.172;2023-03-01T19:54:31;7.00;33.70
431;DHT22;202;48.764;9.172;2023-03-01T20:14:09;6.80;34.70
431;DHT22;202;48.764;9.172;2023-03-01T20:27:37;6.90;35.60
431;DHT22;202;48.764;9.172;2023-03-01T20:30:32;6.90;35.40
431;DHT22;202;48.764;9.172;2023-03-01T20:36:47;7.10;35.20
431;DHT22;202;48.764;9.172;2023-03-01T21:34:01;6.50;36.40
431;DHT22;202;48.764;9.172;2023-03-01T21:36:48;6.60;36.60
431;DHT22;202;48.764;9.172;2023-03-01T21:39:35;6.50;36.50
431;DHT22;202;48.764;9.172;2023-03-01T21:46:47;6.40;36.70
431;DHT22;202;48.764;9.172;2023-03-01T21:55:17;6.70;36.60
431;DHT22;202;48.764;9.172;2023-03-01T21:58:18;6.70;36.40
431;DHT22;202;48.764;9.172;2023-03-01T22:01:16;6.70;36.30
431;DHT22;202;48.764;9.172;2023-03-01T22:06:25;6.70;36.40
431;DHT22;202;48.764;9.172;2023-03-01T22:11:00;6.70;36.10
431;DHT22;202;48.764;9.172;2023-03-01T22:13:38;6.80;36.20
431;DHT22;202;48.764;9.172;2023-03-01T22:16:06;6.80;36.10
431;DHT22;202;48.764;9.172;2023-03-01T22:18:34;6.60;36.30
431;DHT22;202;48.764;9.172;2023-03-01T22:21:15;6.70;36.60
431;DHT22;202;48.764;9.172;2023-03-01T22:23:47;6.60;36.80
431;DHT22;202;48.764;9.172;2023-03-01T22:26:23;6.70;36.70
431;DHT22;202;48.764;9.172;2023-03-01T22:28:55;6.50;36.80
431;DHT22;202;48.764;9.172;2023-03-01T22:31:28;6.60;36.80
431;DHT22;202;48.764;9.172;2023-03-01T22:34:11;6.60;36.80
431;DHT22;202;48.764;9.172;2023-03-01T22:36:57;6.60;36.80
